Time;durP1;ratioP1;P1;durP2;ratioP2;P2;SDS_P1;SDS_P2;PMS_P1;PMS_P2;Temp;Humidity;BMP_temperature;BMP_pressure;BME280_temperature;BME280_humidity;BME280_pressure;Samples;Min_cycle;Max_cycle;Signal;HPM_P1;HPM_P2
2023/01/19 00:00:20;;;;;;;12.93;6.70;;;2.30;99.90;;;;;;5096039;28;20126;-85
2023/01/19 00:02:46;;;;;;;10.32;5.95;;;2.30;99.90;;;;;;5129297;28;20551;-85
2023/01/19 00:05:14;;;;;;;8.77;5.25;;;2.30;99.90;;;;;;5112717;28;20097;-85
2023/01/19 00:07:41;;;;;;;8.88;5.25;;;2.30;99.90;;;;;;5129425;28;20036;-85
2023/01/19 00:10:08;;;;;;;11.48;6.18;;;2.20;99.90;;;;;;5129611;28;20040;-86
2023/01/19 00:12:35;;;;;;;9.73;5.35;;;2.20;99.90;;;;;;5112653;28;20039;-85
2023/01/19 00:15:02;;;;;;;8.95;5.78;;;2.20;99.90;;;;;;5095765;28;20032;-86
2023/01/19 00:17:29;;;;;;;9.85;5.60;;;2.20;99.90;;;;;;5112426;28;20755;-85
2023/01/19 00:19:56;;;;;;;11.95;5.30;;;2.60;99.90;;;;;;5112322;28;20048;-85
2023/01/19 00:22:22;;;;;;;9.52;5.35;;;2.20;99.90;;;;;;5129574;28;20496;-85
2023/01/19 00:24:49;;;;;;;10.05;5.32;;;2.20;99.90;;;;;;5095066;28;20130;-85
2023/01/19 00:27:16;;;;;;;9.38;5.55;;;2.20;99.90;;;;;;5095528;28;20496;-84
2023/01/19 00:29:42;;;;;;;11.40;5.35;;;2.90;99.90;;;;;;5095481;28;20040;-86
2023/01/19 00:32:09;;;;;;;9.45;5.00;;;2.20;99.90;;;;;;5079467;28;20043;-86
2023/01/19 00:34:48;;;;;;;11.63;5.20;;;2.20;99.90;;;;;;5095167;28;20083;-86
2023/01/19 00:37:15;;;;;;;11.63;5.15;;;2.30;99.90;;;;;;5129531;28;20123;-85
2023/01/19 00:39:42;;;;;;;9.82;4.80;;;2.20;99.90;;;;;;5095200;28;20127;-85
2023/01/19 00:44:57;;;;;;;8.07;4.43;;;2.60;99.90;;;;;;5114694;28;20072;-85
2023/01/19 00:47:24;;;;;;;8.18;4.68;;;2.30;99.90;;;;;;5128729;28;20844;-85
2023/01/19 00:49:50;;;;;;;7.20;4.07;;;2.30;99.90;;;;;;5111420;28;20208;-86
2023/01/19 00:52:17;;;;;;;7.18;4.13;;;2.30;99.90;;;;;;5111709;28;20093;-85
2023/01/19 00:54:44;;;;;;;8.48;4.60;;;2.30;99.90;;;;;;5110333;28;20108;-85
2023/01/19 00:57:15;;;;;;;8.27;4.10;;;2.30;99.90;;;;;;5128687;28;20040;-85
2023/01/19 00:59:42;;;;;;;7.50;4.05;;;2.30;99.90;;;;;;5111157;28;20044;-85
2023/01/19 01:02:10;;;;;;;7.95;3.95;;;2.90;99.90;;;;;;5128480;28;20040;-85
2023/01/19 01:04:39;;;;;;;9.57;3.78;;;2.30;99.90;;;;;;5128362;28;20408;-85
2023/01/19 01:07:06;;;;;;;5.57;3.40;;;2.30;99.90;;;;;;5111569;28;20044;-85
2023/01/19 01:09:32;;;;;;;6.22;3.30;;;2.30;99.90;;;;;;5111543;28;20481;-86
2023/01/19 01:11:59;;;;;;;5.47;3.35;;;2.30;99.90;;;;;;5111459;28;20032;-86
2023/01/19 01:14:26;;;;;;;5.68;2.95;;;2.30;99.90;;;;;;5111435;28;20044;-85
2023/01/19 01:16:53;;;;;;;7.82;3.60;;;2.30;99.90;;;;;;5127513;28;20043;-85
2023/01/19 01:19:20;;;;;;;7.68;2.92;;;2.30;99.90;;;;;;5111125;28;20078;-86
2023/01/19 01:21:47;;;;;;;7.35;3.10;;;2.30;99.90;;;;;;5127657;28;20075;-87
2023/01/19 01:24:15;;;;;;;4.45;2.47;;;2.30;99.90;;;;;;5111156;28;20480;-84
2023/01/19 01:26:41;;;;;;;5.75;2.80;;;2.30;99.90;;;;;;5093982;28;20047;-84
2023/01/19 01:29:08;;;;;;;4.72;2.40;;;2.30;99.90;;;;;;5111219;28;20122;-84
2023/01/19 01:31:35;;;;;;;4.57;2.60;;;2.90;99.90;;;;;;5111023;28;20044;-84
2023/01/19 01:34:01;;;;;;;4.63;2.42;;;2.30;99.90;;;;;;5110656;28;20085;-84
2023/01/19 01:36:31;;;;;;;4.75;2.10;;;2.80;99.90;;;;;;5094154;28;20028;-83
2023/01/19 01:38:57;;;;;;;4.40;2.10;;;2.30;99.90;;;;;;5110752;28;20042;-84
2023/01/19 01:41:26;;;;;;;3.83;2.30;;;2.30;99.90;;;;;;5111044;28;20119;-84
2023/01/19 01:43:57;;;;;;;3.55;2.10;;;2.30;99.90;;;;;;5110419;28;20032;-84
2023/01/19 01:46:25;;;;;;;3.97;2.00;;;2.70;99.90;;;;;;5110373;28;20040;-84
2023/01/19 01:49:09;;;;;;;4.30;2.13;;;2.30;99.90;;;;;;5110187;28;20043;-84
2023/01/19 01:51:45;;;;;;;3.65;2.25;;;2.20;99.90;;;;;;5127721;28;20040;-83
2023/01/19 01:54:26;;;;;;;4.72;2.13;;;2.60;99.90;;;;;;5111045;28;20049;-84
2023/01/19 01:56:58;;;;;;;3.63;1.90;;;2.10;99.90;;;;;;5110103;28;20561;-84
2023/01/19 01:59:37;;;;;;;3.47;2.03;;;2.10;99.90;;;;;;5110667;28;20127;-84
2023/01/19 02:05:02;;;;;;;7.80;2.00;;;2.70;99.90;;;;;;5143756;28;20055;-84
2023/01/19 02:13:21;;;;;;;3.38;1.88;;;2.00;99.90;;;;;;5127080;28;20128;-83
2023/01/19 02:15:56;;;;;;;4.82;1.90;;;2.00;99.90;;;;;;5110017;28;20044;-84
2023/01/19 02:18:26;;;;;;;4.95;1.85;;;2.20;99.90;;;;;;5109671;28;20484;-84
2023/01/19 02:21:17;;;;;;;3.75;1.95;;;2.00;99.90;;;;;;5126834;28;20044;-84
2023/01/19 02:23:53;;;;;;;6.80;2.40;;;2.00;99.90;;;;;;5127022;28;20043;-80
2023/01/19 02:26:25;;;;;;;4.20;2.40;;;2.00;99.90;;;;;;5126835;28;20044;-84
2023/01/19 02:28:59;;;;;;;4.82;2.83;;;1.90;99.90;;;;;;5109604;28;20044;-83
2023/01/19 02:31:28;;;;;;;5.18;2.25;;;1.90;99.90;;;;;;5127104;28;20501;-84
2023/01/19 02:33:56;;;;;;;4.95;2.80;;;1.90;99.90;;;;;;5109413;28;20083;-83
2023/01/19 02:36:27;;;;;;;5.35;2.70;;;2.70;99.90;;;;;;5093429;28;20097;-84
2023/01/19 02:38:57;;;;;;;5.63;3.13;;;1.90;99.90;;;;;;5109303;28;20751;-84
2023/01/19 02:41:27;;;;;;;9.43;3.05;;;2.50;99.90;;;;;;5109675;28;20377;-84
2023/01/19 02:43:57;;;;;;;5.82;3.45;;;1.90;99.90;;;;;;5126513;28;20036;-83
2023/01/19 02:46:24;;;;;;;6.30;3.60;;;1.90;99.90;;;;;;5126340;28;20040;-84
2023/01/19 02:48:51;;;;;;;7.47;3.72;;;1.90;99.90;;;;;;5125846;28;20071;-84
2023/01/19 02:51:23;;;;;;;8.43;4.20;;;2.70;99.90;;;;;;5109593;28;20092;-84
2023/01/19 02:54:16;;;;;;;6.68;4.30;;;1.90;99.90;;;;;;5126206;28;20043;-84
2023/01/19 02:57:01;;;;;;;10.95;5.00;;;1.90;99.90;;;;;;5126411;28;20593;-84
2023/01/19 02:59:34;;;;;;;8.23;4.53;;;1.90;99.90;;;;;;5109284;28;20044;-84
2023/01/19 03:02:19;;;;;;;7.55;4.45;;;1.90;99.90;;;;;;5126090;28;20233;-84
2023/01/19 03:05:29;;;;;;;9.82;4.65;;;1.90;99.90;;;;;;5126577;28;20047;-83
2023/01/19 03:08:07;;;;;;;7.53;4.63;;;1.90;99.90;;;;;;5125898;28;20040;-83
2023/01/19 03:10:52;;;;;;;13.23;4.93;;;1.90;99.90;;;;;;5109157;28;20063;-84
2023/01/19 03:13:51;;;;;;;8.45;5.07;;;1.90;99.90;;;;;;5126100;28;20036;-84
2023/01/19 03:16:43;;;;;;;7.90;4.65;;;1.90;99.90;;;;;;5109458;28;20052;-83
2023/01/19 03:19:15;;;;;;;11.60;4.82;;;1.90;99.90;;;;;;5129987;28;20043;-84
2023/01/19 03:21:46;;;;;;;10.25;5.97;;;1.90;99.90;;;;;;5130179;28;20046;-84
2023/01/19 03:24:16;;;;;;;11.85;5.25;;;1.90;99.90;;;;;;5130112;28;20045;-83
2023/01/19 03:26:48;;;;;;;11.60;5.63;;;1.90;99.90;;;;;;5113742;28;20047;-84
2023/01/19 03:29:17;;;;;;;10.05;5.63;;;1.90;99.90;;;;;;5113204;28;20036;-84
2023/01/19 03:31:48;;;;;;;8.82;5.32;;;1.90;99.90;;;;;;5113233;28;20047;-84
2023/01/19 03:34:17;;;;;;;11.82;5.82;;;1.90;99.90;;;;;;5129689;28;20051;-84
2023/01/19 03:36:49;;;;;;;9.60;5.75;;;1.90;99.90;;;;;;5113509;28;20075;-84
2023/01/19 03:39:21;;;;;;;11.73;6.07;;;1.90;99.90;;;;;;5129990;28;20040;-84
2023/01/19 03:41:53;;;;;;;12.93;6.45;;;2.50;99.90;;;;;;5113148;28;20148;-84
2023/01/19 03:44:22;;;;;;;10.13;6.15;;;2.00;99.90;;;;;;5112996;28;20052;-84
2023/01/19 03:46:49;;;;;;;11.60;6.40;;;2.00;99.90;;;;;;5113148;28;20044;-83
2023/01/19 03:49:17;;;;;;;12.25;6.68;;;1.90;99.90;;;;;;5112592;28;20633;-84
2023/01/19 03:51:44;;;;;;;13.57;7.15;;;1.90;99.90;;;;;;5129984;28;20044;-83
2023/01/19 03:54:11;;;;;;;13.70;6.43;;;2.70;99.90;;;;;;5129314;28;20036;-86
2023/01/19 03:56:38;;;;;;;13.40;7.43;;;2.00;99.90;;;;;;5112616;28;20089;-84
2023/01/19 03:59:05;;;;;;;11.77;7.00;;;1.90;99.90;;;;;;5095844;28;20036;-84
2023/01/19 04:01:32;;;;;;;11.68;7.03;;;1.90;99.90;;;;;;5129365;28;20036;-84
2023/01/19 04:03:59;;;;;;;13.20;6.72;;;2.30;99.90;;;;;;5129191;28;20040;-84
2023/01/19 04:06:26;;;;;;;13.27;7.15;;;1.90;99.90;;;;;;5112964;28;20124;-84
2023/01/19 04:08:53;;;;;;;15.30;7.40;;;2.00;99.90;;;;;;5129511;28;20040;-84
2023/01/19 04:11:20;;;;;;;11.95;7.35;;;2.00;99.90;;;;;;5129299;28;20043;-84
2023/01/19 04:13:47;;;;;;;13.80;7.63;;;2.00;99.90;;;;;;5112724;28;20036;-84
2023/01/19 04:16:18;;;;;;;11.27;6.63;;;2.00;99.90;;;;;;5112212;28;20078;-84
2023/01/19 04:18:45;;;;;;;10.90;6.82;;;2.00;99.90;;;;;;5096913;28;20127;-84
2023/01/19 04:21:12;;;;;;;14.35;7.10;;;2.60;99.90;;;;;;5112199;28;20078;-84
2023/01/19 04:23:38;;;;;;;11.23;6.80;;;2.00;99.90;;;;;;5112224;28;20097;-84
2023/01/19 04:26:07;;;;;;;10.98;6.55;;;2.00;99.90;;;;;;5111860;28;20036;-83
2023/01/19 04:28:35;;;;;;;11.20;6.53;;;2.00;99.90;;;;;;5127554;28;20032;-83
2023/01/19 04:31:04;;;;;;;13.35;7.30;;;2.00;99.90;;;;;;5128799;28;20036;-84
2023/01/19 04:33:31;;;;;;;16.17;6.78;;;2.00;99.90;;;;;;5129430;28;20158;-84
2023/01/19 04:35:57;;;;;;;11.32;6.38;;;2.00;99.90;;;;;;5128588;28;20481;-83
2023/01/19 04:38:25;;;;;;;9.70;5.72;;;2.10;99.90;;;;;;5128462;28;20047;-84
2023/01/19 04:40:52;;;;;;;13.07;6.55;;;2.00;99.90;;;;;;5129193;28;20036;-84
2023/01/19 04:43:20;;;;;;;12.95;6.35;;;2.00;99.90;;;;;;5095275;28;20044;-84
2023/01/19 04:45:47;;;;;;;10.25;6.47;;;2.00;99.90;;;;;;5111891;28;20412;-84
2023/01/19 04:48:17;;;;;;;13.07;6.97;;;2.10;99.90;;;;;;5111824;28;20051;-84
2023/01/19 04:50:43;;;;;;;12.25;6.70;;;2.00;99.90;;;;;;5111664;28;20125;-84
2023/01/19 04:53:12;;;;;;;10.60;6.57;;;2.00;99.90;;;;;;5128377;28;20048;-83
2023/01/19 04:55:39;;;;;;;9.82;6.03;;;2.00;99.90;;;;;;5112173;28;20079;-84
2023/01/19 04:58:06;;;;;;;10.65;6.22;;;2.00;99.90;;;;;;5111320;28;20079;-84
2023/01/19 05:00:32;;;;;;;11.57;6.45;;;2.00;99.90;;;;;;5111809;28;20032;-84
2023/01/19 05:03:00;;;;;;;9.98;5.63;;;2.60;99.90;;;;;;5112204;28;20074;-84
2023/01/19 05:05:26;;;;;;;11.02;5.93;;;2.00;99.90;;;;;;5128237;28;20055;-83
2023/01/19 05:07:53;;;;;;;10.75;6.60;;;2.00;99.90;;;;;;5128485;28;20044;-84
2023/01/19 05:10:20;;;;;;;9.07;5.53;;;2.00;99.90;;;;;;5111076;28;20048;-85
2023/01/19 05:12:47;;;;;;;9.55;5.43;;;2.70;99.90;;;;;;5128690;28;20040;-84
2023/01/19 05:15:14;;;;;;;9.27;5.47;;;2.10;99.90;;;;;;5111016;28;20040;-84
2023/01/19 05:17:41;;;;;;;11.10;5.32;;;1.90;99.90;;;;;;5111340;28;20040;-83
2023/01/19 05:20:10;;;;;;;10.88;5.65;;;2.70;99.90;;;;;;5128128;28;20042;-80
2023/01/19 05:22:38;;;;;;;8.85;5.60;;;1.80;99.90;;;;;;5127986;28;20511;-84
2023/01/19 05:25:08;;;;;;;9.27;5.10;;;1.80;99.90;;;;;;5111762;28;20054;-84
2023/01/19 05:27:36;;;;;;;7.45;4.55;;;1.80;99.90;;;;;;5111322;28;20067;-84
2023/01/19 05:30:04;;;;;;;9.23;4.70;;;2.30;99.90;;;;;;5111231;28;20031;-84
2023/01/19 05:32:31;;;;;;;8.90;4.40;;;1.70;99.90;;;;;;5127784;28;20042;-84
2023/01/19 05:34:57;;;;;;;8.93;4.20;;;1.60;99.90;;;;;;5094997;28;20491;-84
2023/01/19 05:37:24;;;;;;;8.05;4.25;;;1.70;99.90;;;;;;5094025;28;20093;-84
2023/01/19 05:39:51;;;;;;;8.43;4.65;;;1.60;99.90;;;;;;5094313;28;20048;-83
2023/01/19 05:42:19;;;;;;;8.15;4.75;;;1.50;99.90;;;;;;5094434;28;20043;-84
2023/01/19 05:44:45;;;;;;;7.72;4.18;;;2.30;99.90;;;;;;5127589;28;20042;-84
2023/01/19 05:47:12;;;;;;;8.15;4.88;;;1.50;99.90;;;;;;5110137;28;20123;-84
2023/01/19 05:49:39;;;;;;;7.60;4.68;;;1.70;99.90;;;;;;5127158;28;20059;-84
2023/01/19 05:52:05;;;;;;;10.18;4.68;;;1.50;99.90;;;;;;5110630;28;20044;-84
2023/01/19 05:54:32;;;;;;;10.65;4.63;;;1.80;99.90;;;;;;5093821;28;20137;-84
2023/01/19 05:56:59;;;;;;;8.75;4.60;;;1.50;99.90;;;;;;5127500;28;20036;-84
2023/01/19 05:59:26;;;;;;;9.32;4.53;;;1.40;99.90;;;;;;5127166;28;20040;-84
2023/01/19 06:01:53;;;;;;;8.02;4.53;;;1.40;99.90;;;;;;5127448;28;20039;-83
2023/01/19 06:04:20;;;;;;;9.27;4.75;;;1.40;99.90;;;;;;5127060;28;20075;-84
2023/01/19 06:06:50;;;;;;;8.38;4.45;;;1.40;99.90;;;;;;5110250;28;20047;-84
2023/01/19 06:09:17;;;;;;;12.32;4.50;;;1.50;99.90;;;;;;5126908;28;20425;-84
2023/01/19 06:11:45;;;;;;;10.80;4.72;;;2.20;99.90;;;;;;5126978;28;20047;-84
2023/01/19 06:14:12;;;;;;;10.75;4.53;;;1.90;99.90;;;;;;5110272;28;20892;-84
2023/01/19 06:16:38;;;;;;;10.07;4.22;;;1.50;99.90;;;;;;5109954;28;20127;-84
2023/01/19 06:19:05;;;;;;;9.07;3.90;;;1.50;99.90;;;;;;5127413;28;20158;-84
2023/01/19 06:21:33;;;;;;;9.77;3.60;;;1.80;99.90;;;;;;5127020;28;20130;-84
2023/01/19 06:23:59;;;;;;;9.55;4.10;;;1.50;99.90;;;;;;5126842;28;20040;-82
2023/01/19 06:26:26;;;;;;;7.65;3.65;;;1.60;99.90;;;;;;5093148;28;20590;-84
2023/01/19 06:28:53;;;;;;;12.85;4.05;;;2.40;99.90;;;;;;5110128;28;20067;-84
2023/01/19 06:31:20;;;;;;;9.80;3.55;;;1.60;99.90;;;;;;5109500;28;20135;-84
2023/01/19 06:33:46;;;;;;;6.43;2.67;;;1.60;99.90;;;;;;5127168;28;20066;-83
2023/01/19 06:36:13;;;;;;;6.85;2.92;;;1.60;99.90;;;;;;5109836;28;20484;-84
2023/01/19 06:38:40;;;;;;;7.75;3.25;;;1.60;99.90;;;;;;5126431;28;20035;-84
2023/01/19 06:41:06;;;;;;;9.60;3.22;;;2.20;99.90;;;;;;5109721;28;20093;-84
2023/01/19 06:43:33;;;;;;;7.38;2.85;;;1.50;99.90;;;;;;5092580;28;20519;-83
2023/01/19 06:46:00;;;;;;;7.32;2.65;;;1.50;99.90;;;;;;5109680;28;20541;-84
2023/01/19 06:48:26;;;;;;;5.75;2.83;;;2.20;99.90;;;;;;5109177;28;20076;-83
2023/01/19 06:50:53;;;;;;;7.80;2.50;;;1.50;99.90;;;;;;5109294;28;20407;-84
2023/01/19 06:53:21;;;;;;;4.50;1.67;;;1.60;99.90;;;;;;5125555;28;20515;-84
2023/01/19 06:55:47;;;;;;;2.60;1.00;;;2.00;99.90;;;;;;5110362;28;20039;-84
2023/01/19 06:58:14;;;;;;;4.00;1.20;;;1.70;99.90;;;;;;5127649;28;20044;-84
2023/01/19 07:00:41;;;;;;;3.63;1.10;;;2.10;99.90;;;;;;5106054;28;20039;-84
2023/01/19 07:03:15;;;;;;;4.78;1.25;;;1.80;99.90;;;;;;5093095;28;20182;-84
2023/01/19 07:05:41;;;;;;;3.47;1.23;;;1.90;99.90;;;;;;5108467;28;20052;-84
2023/01/19 07:08:09;;;;;;;2.97;0.73;;;2.10;99.90;;;;;;5106221;28;20048;-83
2023/01/19 07:10:36;;;;;;;1.67;0.88;;;1.90;99.90;;;;;;5126325;28;20035;-85
2023/01/19 07:13:02;;;;;;;4.53;1.10;;;2.00;99.90;;;;;;5080533;28;20066;-85
2023/01/19 07:15:29;;;;;;;5.05;1.02;;;1.90;99.90;;;;;;5096422;28;20041;-84
2023/01/19 07:18:02;;;;;;;8.13;0.80;;;1.90;99.90;;;;;;5099020;28;20124;-85
2023/01/19 07:20:29;;;;;;;1.20;0.80;;;1.90;99.90;;;;;;5092756;28;20458;-85
2023/01/19 07:22:56;;;;;;;2.33;0.85;;;1.90;99.90;;;;;;5092940;28;20044;-85
2023/01/19 07:25:23;;;;;;;1.92;0.70;;;2.10;99.90;;;;;;5124728;28;20035;-85
2023/01/19 07:27:49;;;;;;;2.33;0.63;;;2.10;99.90;;;;;;5099965;28;20041;-84
2023/01/19 07:30:16;;;;;;;0.65;0.38;;;2.40;99.90;;;;;;5075421;28;20028;-85
2023/01/19 07:32:43;;;;;;;4.20;0.70;;;1.90;99.90;;;;;;5088272;28;20036;-84
2023/01/19 07:35:10;;;;;;;0.57;0.38;;;2.40;99.90;;;;;;5123197;28;20051;-83
2023/01/19 07:37:36;;;;;;;0.65;0.50;;;1.80;99.90;;;;;;5097561;28;20097;-83
2023/01/19 07:40:04;;;;;;;3.83;0.52;;;2.60;99.90;;;;;;5108040;28;20838;-83
2023/01/19 07:42:30;;;;;;;0.82;0.43;;;1.90;99.90;;;;;;5061829;28;20489;-84
2023/01/19 07:44:57;;;;;;;1.85;0.70;;;2.00;99.90;;;;;;5083910;28;20119;-84
2023/01/19 07:47:24;;;;;;;0.32;0.32;;;2.10;99.90;;;;;;5109384;28;20036;-84
2023/01/19 07:49:51;;;;;;;3.83;0.45;;;2.10;99.90;;;;;;5113511;28;20061;-84
2023/01/19 07:52:18;;;;;;;2.10;0.60;;;2.10;99.90;;;;;;5106003;28;20040;-84
2023/01/19 07:54:44;;;;;;;4.03;0.38;;;2.10;99.90;;;;;;5105271;28;20442;-84
2023/01/19 07:57:11;;;;;;;1.83;0.80;;;2.10;99.90;;;;;;5089403;28;20052;-84
2023/01/19 07:59:38;;;;;;;2.35;0.55;;;2.10;99.90;;;;;;5088470;28;20083;-84
2023/01/19 08:02:06;;;;;;;1.58;0.52;;;2.80;99.90;;;;;;5114349;28;20148;-85
2023/01/19 08:04:33;;;;;;;3.25;0.93;;;2.20;99.90;;;;;;5146164;28;20051;-84
2023/01/19 08:06:59;;;;;;;0.43;0.40;;;2.30;99.90;;;;;;5112609;28;20400;-84
2023/01/19 08:09:26;;;;;;;2.13;0.55;;;2.30;99.90;;;;;;5101239;28;20036;-83
2023/01/19 08:11:53;;;;;;;4.10;0.90;;;2.50;99.90;;;;;;5101205;28;20377;-84
2023/01/19 08:14:19;;;;;;;7.85;0.90;;;2.50;99.90;;;;;;5112444;28;20044;-85
2023/01/19 08:16:47;;;;;;;6.13;0.68;;;3.00;99.90;;;;;;5112445;28;20118;-84
2023/01/19 08:19:13;;;;;;;2.53;0.90;;;2.40;99.90;;;;;;5102434;28;20079;-85
2023/01/19 08:21:40;;;;;;;4.05;1.30;;;2.40;99.90;;;;;;5102752;28;20040;-86
2023/01/19 08:24:17;;;;;;;1.63;1.05;;;3.00;99.90;;;;;;5104340;28;20036;-84
2023/01/19 08:26:44;;;;;;;5.68;0.90;;;2.40;99.90;;;;;;5103393;28;20037;-85
2023/01/19 08:29:11;;;;;;;0.55;0.50;;;2.40;99.90;;;;;;5101868;28;20603;-85
2023/01/19 08:31:38;;;;;;;9.10;1.35;;;2.40;99.90;;;;;;5109532;28;20060;-85
2023/01/19 08:34:05;;;;;;;2.55;0.88;;;2.50;99.90;;;;;;5100677;28;20028;-82
2023/01/19 08:36:32;;;;;;;7.00;0.85;;;2.50;99.90;;;;;;5098265;28;20036;-85
2023/01/19 08:38:58;;;;;;;0.65;0.55;;;2.60;99.90;;;;;;5110676;28;20573;-85
2023/01/19 08:41:25;;;;;;;2.05;0.50;;;2.80;99.90;;;;;;5124007;28;20374;-85
2023/01/19 08:43:52;;;;;;;19.70;1.52;;;2.60;99.90;;;;;;5103856;28;20032;-85
2023/01/19 08:46:20;;;;;;;9.23;0.85;;;2.70;99.90;;;;;;5085620;28;20033;-83
2023/01/19 08:48:48;;;;;;;3.67;0.73;;;2.60;99.90;;;;;;5107755;28;20071;-83
2023/01/19 08:51:15;;;;;;;3.03;0.38;;;3.40;99.90;;;;;;5091950;28;20052;-83
2023/01/19 08:53:42;;;;;;;3.30;0.93;;;2.60;99.90;;;;;;5112216;28;20096;-83
2023/01/19 08:56:11;;;;;;;8.23;1.00;;;2.60;99.90;;;;;;5108827;28;20036;-82
2023/01/19 08:58:42;;;;;;;4.85;1.23;;;3.30;99.90;;;;;;5125491;28;20513;-84
2023/01/19 09:01:12;;;;;;;5.20;0.63;;;2.70;99.90;;;;;;5128458;28;20036;-83
2023/01/19 09:03:39;;;;;;;1.77;0.60;;;2.70;99.90;;;;;;5111320;28;20089;-83
2023/01/19 09:06:07;;;;;;;7.03;0.63;;;2.80;99.90;;;;;;5111400;28;20040;-83
2023/01/19 09:08:34;;;;;;;1.38;0.88;;;2.70;99.90;;;;;;5128222;28;20036;-83
2023/01/19 09:11:01;;;;;;;10.50;1.33;;;2.70;99.90;;;;;;5127871;28;20132;-83
2023/01/19 09:13:27;;;;;;;4.40;0.75;;;2.70;99.90;;;;;;5111321;28;20050;-83
2023/01/19 09:15:54;;;;;;;2.17;0.60;;;2.70;99.90;;;;;;5127476;28;20047;-83
2023/01/19 09:18:21;;;;;;;0.90;0.40;;;2.70;99.90;;;;;;5095020;28;20040;-83
2023/01/19 09:20:49;;;;;;;9.95;1.33;;;2.70;99.90;;;;;;5111234;28;20050;-83
2023/01/19 09:23:18;;;;;;;3.83;0.93;;;3.50;99.90;;;;;;5111097;28;20036;-83
2023/01/19 09:25:46;;;;;;;3.15;0.40;;;2.70;99.90;;;;;;5144496;28;20043;-83
2023/01/19 09:28:15;;;;;;;2.72;0.82;;;3.20;99.90;;;;;;5111172;28;20036;-83
2023/01/19 09:30:42;;;;;;;9.43;0.77;;;2.70;99.90;;;;;;5127769;28;20040;-83
2023/01/19 09:33:11;;;;;;;1.25;0.47;;;2.70;99.90;;;;;;5128204;28;20043;-83
2023/01/19 09:35:39;;;;;;;2.83;0.88;;;2.70;99.90;;;;;;5127919;28;20039;-83
2023/01/19 09:38:08;;;;;;;10.70;1.25;;;2.80;99.90;;;;;;5111006;28;20557;-80
2023/01/19 09:40:48;;;;;;;9.95;1.20;;;3.10;99.90;;;;;;5110535;28;20139;-80
2023/01/19 09:43:36;;;;;;;6.25;1.02;;;2.90;99.90;;;;;;5127590;28;20040;-80
2023/01/19 09:46:11;;;;;;;1.30;0.60;;;2.90;99.90;;;;;;5110550;28;20036;-80
2023/01/19 09:48:57;;;;;;;3.60;0.70;;;3.00;99.90;;;;;;5110381;28;20075;-81
2023/01/19 09:51:32;;;;;;;0.30;0.30;;;3.00;99.90;;;;;;5127714;28;20043;-80
2023/01/19 09:54:05;;;;;;;7.50;0.65;;;3.00;99.90;;;;;;5127060;28;20036;-80
2023/01/19 09:56:32;;;;;;;5.38;1.17;;;3.10;99.90;;;;;;5127658;28;20089;-80
2023/01/19 09:59:00;;;;;;;6.45;1.27;;;3.20;99.90;;;;;;5110341;28;20036;-79
2023/01/19 10:01:51;;;;;;;2.95;0.77;;;3.30;99.90;;;;;;5108708;28;20096;-80
2023/01/19 10:04:26;;;;;;;3.40;0.88;;;3.20;99.90;;;;;;5114340;28;20063;-79
2023/01/19 10:07:25;;;;;;;3.45;1.00;;;3.30;99.90;;;;;;5119356;28;20044;-80
2023/01/19 10:10:22;;;;;;;2.25;0.80;;;3.30;99.90;;;;;;5089281;28;20572;-80
2023/01/19 10:13:16;;;;;;;2.50;0.98;;;3.30;99.90;;;;;;5089651;28;20378;-80
2023/01/19 10:15:43;;;;;;;1.77;0.60;;;3.30;99.90;;;;;;5090160;28;20036;-80
2023/01/19 10:18:18;;;;;;;4.00;1.17;;;3.30;99.90;;;;;;5121042;28;20048;-80
2023/01/19 10:21:12;;;;;;;2.63;0.95;;;3.30;99.90;;;;;;5126583;28;20075;-80
2023/01/19 10:24:04;;;;;;;6.25;1.08;;;3.30;99.90;;;;;;5091546;28;20086;-80
2023/01/19 10:26:41;;;;;;;17.83;0.80;;;3.30;99.90;;;;;;5089078;28;20044;-81
2023/01/19 10:29:35;;;;;;;7.55;1.45;;;3.30;99.90;;;;;;5126445;28;20485;-80
2023/01/19 10:32:13;;;;;;;2.00;0.90;;;3.30;99.90;;;;;;5108996;28;20044;-80
2023/01/19 10:34:40;;;;;;;3.85;1.13;;;3.20;99.90;;;;;;5109557;28;20036;-80
2023/01/19 10:37:16;;;;;;;10.65;0.85;;;3.20;99.90;;;;;;5092256;28;20061;-80
2023/01/19 10:39:44;;;;;;;;;;;3.20;99.90;;;;;;5110030;28;20044;-80
2023/01/19 10:42:14;;;;;;;6.57;1.20;;;3.30;99.90;;;;;;5109174;28;19920;-79
2023/01/19 10:44:41;;;;;;;1.30;0.40;;;3.30;99.90;;;;;;5109278;28;20036;-83
2023/01/19 10:47:15;;;;;;;3.00;0.63;;;3.30;99.90;;;;;;5091608;28;20050;-82
2023/01/19 10:49:43;;;;;;;2.75;0.65;;;3.40;99.90;;;;;;5109679;28;20048;-83
2023/01/19 10:52:32;;;;;;;4.38;0.70;;;3.40;99.90;;;;;;5091649;28;20036;-82
2023/01/19 10:55:01;;;;;;;1.48;0.55;;;3.50;99.90;;;;;;5099275;28;20764;-82
2023/01/19 10:57:33;;;;;;;2.20;0.80;;;3.60;99.90;;;;;;5090988;28;20040;-82
2023/01/19 10:59:59;;;;;;;9.15;0.52;;;3.60;99.90;;;;;;5116521;28;20036;-82
2023/01/19 11:02:28;;;;;;;4.40;0.70;;;3.70;99.90;;;;;;5109057;28;20040;-83
2023/01/19 11:05:01;;;;;;;2.75;1.15;;;3.70;99.90;;;;;;5117811;28;20071;-82
2023/01/19 11:07:29;;;;;;;1.50;0.60;;;3.90;99.90;;;;;;5106040;28;20488;-82
2023/01/19 11:10:24;;;;;;;7.38;1.60;;;3.80;99.90;;;;;;5102751;28;20024;-82
2023/01/19 11:13:02;;;;;;;4.03;0.63;;;3.90;99.90;;;;;;5120289;28;20056;-83
2023/01/19 11:15:43;;;;;;;7.18;0.52;;;4.00;99.90;;;;;;5114554;28;20460;-82
2023/01/19 11:18:28;;;;;;;11.68;1.10;;;4.00;99.90;;;;;;5102601;28;20158;-82
2023/01/19 11:20:59;;;;;;;7.78;0.60;;;4.10;99.90;;;;;;5104899;28;20081;-83
2023/01/19 11:23:30;;;;;;;11.40;1.25;;;4.10;99.90;;;;;;5092645;28;20040;-83
2023/01/19 11:26:00;;;;;;;1.88;0.80;;;4.20;99.90;;;;;;5114762;28;20040;-82
2023/01/19 11:28:44;;;;;;;11.45;1.17;;;4.30;99.90;;;;;;5126085;28;20036;-83
2023/01/19 11:31:14;;;;;;;3.17;0.88;;;4.30;99.90;;;;;;5108703;28;20032;-83
2023/01/19 11:33:42;;;;;;;10.65;1.10;;;4.30;99.90;;;;;;5105357;28;20127;-83
2023/01/19 11:36:35;;;;;;;4.22;1.50;;;4.40;99.90;;;;;;5118750;28;20427;-82
2023/01/19 11:39:11;;;;;;;4.57;0.80;;;4.50;99.90;;;;;;5103275;28;20052;-79
2023/01/19 11:41:38;;;;;;;1.70;0.50;;;4.40;99.90;;;;;;5121368;28;20079;-79
2023/01/19 11:44:19;;;;;;;5.20;0.50;;;4.50;99.90;;;;;;5126534;28;20463;-80
2023/01/19 11:47:05;;;;;;;4.35;1.00;;;4.50;99.90;;;;;;5127729;28;20373;-81
2023/01/19 11:49:58;;;;;;;1.93;0.67;;;4.50;99.90;;;;;;5112506;28;20052;-81
2023/01/19 11:52:27;;;;;;;1.77;0.45;;;4.50;99.90;;;;;;5129711;28;20135;-81
2023/01/19 11:55:02;;;;;;;3.05;1.35;;;4.50;99.90;;;;;;5129602;28;20446;-82
2023/01/19 11:57:28;;;;;;;8.70;0.77;;;4.50;99.90;;;;;;5112547;28;20051;-83
2023/01/19 12:00:02;;;;;;;4.00;0.43;;;4.50;99.90;;;;;;5095465;28;20047;-83
2023/01/19 12:02:41;;;;;;;2.65;0.90;;;4.60;99.90;;;;;;5093377;28;20048;-83
2023/01/19 12:05:13;;;;;;;4.88;1.38;;;4.50;99.90;;;;;;5109003;28;20045;-83
2023/01/19 12:07:44;;;;;;;15.70;1.02;;;4.60;99.90;;;;;;5108756;28;20049;-83
2023/01/19 12:10:24;;;;;;;8.20;1.65;;;4.60;99.90;;;;;;5092242;28;20493;-83
2023/01/19 12:12:52;;;;;;;2.15;0.98;;;4.70;99.90;;;;;;5092518;28;20036;-83
2023/01/19 12:15:29;;;;;;;2.35;0.75;;;4.70;99.90;;;;;;5091608;28;20492;-83
2023/01/19 12:17:59;;;;;;;9.02;0.95;;;5.10;99.90;;;;;;5120821;28;20035;-83
2023/01/19 12:20:29;;;;;;;9.57;1.08;;;4.90;99.90;;;;;;5112383;28;20085;-83
2023/01/19 12:23:17;;;;;;;1.08;0.47;;;5.00;99.90;;;;;;5129048;28;20123;-83
2023/01/19 12:25:44;;;;;;;9.30;0.98;;;5.00;99.90;;;;;;5112116;28;20488;-83
2023/01/19 12:28:14;;;;;;;0.77;0.45;;;5.00;99.90;;;;;;5111896;28;20040;-83
2023/01/19 12:30:41;;;;;;;9.25;1.10;;;5.10;99.90;;;;;;5112068;28;20073;-83
2023/01/19 12:33:39;;;;;;;12.73;1.77;;;5.20;99.90;;;;;;5094972;28;20048;-83
2023/01/19 12:36:26;;;;;;;6.82;0.90;;;5.20;99.90;;;;;;5101117;28;20037;-83
2023/01/19 12:38:54;;;;;;;2.55;0.80;;;5.30;99.90;;;;;;5098952;28;20040;-83
2023/01/19 12:41:33;;;;;;;1.05;0.50;;;5.30;99.90;;;;;;5128187;28;20039;-81
2023/01/19 12:44:09;;;;;;;4.28;1.30;;;5.30;99.90;;;;;;5101331;28;20040;-79
2023/01/19 12:46:38;;;;;;;8.68;0.88;;;5.30;99.90;;;;;;5125227;28;20062;-81
2023/01/19 12:49:18;;;;;;;5.28;0.40;;;5.30;99.90;;;;;;5121529;28;20067;-80
2023/01/19 12:51:45;;;;;;;2.63;0.70;;;5.30;99.90;;;;;;5126501;28;20499;-81
2023/01/19 12:54:30;;;;;;;2.10;0.50;;;5.20;99.90;;;;;;5092032;28;20044;-80
2023/01/19 12:57:01;;;;;;;0.20;0.20;;;5.00;99.90;;;;;;5099407;28;20036;-81
2023/01/19 12:59:29;;;;;;;5.45;0.70;;;4.80;99.90;;;;;;5127820;28;20094;-82
2023/01/19 13:02:26;;;;;;;2.85;0.77;;;4.70;99.90;;;;;;5111394;28;20079;-82
2023/01/19 13:05:17;;;;;;;2.40;0.65;;;4.60;99.90;;;;;;5088553;28;20051;-81
2023/01/19 13:08:05;;;;;;;3.70;1.48;;;4.50;99.90;;;;;;5107737;28;20045;-82
2023/01/19 13:11:18;;;;;;;1.60;0.80;;;4.50;99.90;;;;;;5094660;28;20519;-81
2023/01/19 13:13:48;;;;;;;5.53;0.88;;;4.40;99.90;;;;;;5091217;28;20076;-82
2023/01/19 13:16:18;;;;;;;1.85;0.68;;;4.40;99.90;;;;;;5090930;28;20041;-81
2023/01/19 13:18:56;;;;;;;2.50;0.95;;;4.30;99.90;;;;;;5091345;28;20049;-81
2023/01/19 13:21:38;;;;;;;2.10;0.68;;;4.30;99.90;;;;;;5104115;28;20092;-81
2023/01/19 13:24:16;;;;;;;1.10;0.43;;;4.30;99.90;;;;;;5128454;28;20044;-81
2023/01/19 13:26:49;;;;;;;0.70;0.38;;;4.20;99.90;;;;;;5111450;28;20546;-82